AAL2093 KLAX-KOAK
Flight info
| Callsign | AAL2093 |
|---|---|
| Flight time | 1h 3m |
| Altitude | 36000 |
| Route | LADYJ4 COREZ RGOOD EMZOH4 |
| Aircraft | B738/M-SDE2E3FGHIRWXY/LB1 |
Departure
| Time | 2026-04-25 04:38 |
|---|---|
| Airport | Los Angeles International Airport (KLAX) |
Arrival
| Time | 2026-04-25 05:42 |
|---|---|
| Airport | San Francisco Bay Oakland International Airport (KOAK) |
| Time | Latitude | Longitude | Altitude | Speed | Heading |
|---|---|---|---|---|---|
| 2026-04-25 03:30 | 33.94043 | -118.40614 | 125 ft | 0 kts | 263° |
| 2026-04-25 04:24 | 33.94044 | -118.40611 | 125 ft | 3 kts | 262° |
| 2026-04-25 04:24 | 33.94049 | -118.40581 | 123 ft | 4 kts | 242° |
| 2026-04-25 04:24 | 33.94065 | -118.40560 | 123 ft | 4 kts | 189° |
| 2026-04-25 04:25 | 33.94074 | -118.40559 | 120 ft | 0 kts | 173° |
| 2026-04-25 04:29 | 33.94064 | -118.40558 | 122 ft | 4 kts | 173° |
| 2026-04-25 04:29 | 33.94019 | -118.40551 | 123 ft | 9 kts | 173° |
| 2026-04-25 04:29 | 33.93992 | -118.40547 | 123 ft | 0 kts | 173° |
| 2026-04-25 04:32 | 33.93975 | -118.40544 | 123 ft | 5 kts | 173° |
| 2026-04-25 04:32 | 33.93932 | -118.40538 | 122 ft | 7 kts | 173° |
| 2026-04-25 04:32 | 33.93892 | -118.40532 | 122 ft | 8 kts | 173° |
| 2026-04-25 04:33 | 33.93868 | -118.40529 | 122 ft | 3 kts | 173° |
| 2026-04-25 04:33 | 33.93837 | -118.40513 | 123 ft | 7 kts | 134° |
| 2026-04-25 04:33 | 33.93832 | -118.40437 | 125 ft | 12 kts | 80° |
| 2026-04-25 04:33 | 33.93846 | -118.40319 | 125 ft | 17 kts | 83° |
| 2026-04-25 04:34 | 33.93861 | -118.40166 | 123 ft | 19 kts | 83° |
| 2026-04-25 04:34 | 33.93879 | -118.39993 | 125 ft | 23 kts | 82° |
| 2026-04-25 04:34 | 33.93900 | -118.39790 | 123 ft | 26 kts | 83° |
| 2026-04-25 04:34 | 33.93921 | -118.39572 | 125 ft | 27 kts | 82° |
| 2026-04-25 04:35 | 33.93940 | -118.39391 | 120 ft | 21 kts | 83° |
| 2026-04-25 04:35 | 33.93958 | -118.39217 | 125 ft | 21 kts | 83° |
| 2026-04-25 04:35 | 33.93975 | -118.39050 | 125 ft | 19 kts | 83° |
| 2026-04-25 04:35 | 33.93992 | -118.38890 | 125 ft | 20 kts | 83° |
| 2026-04-25 04:36 | 33.94009 | -118.38722 | 122 ft | 21 kts | 83° |
| 2026-04-25 04:36 | 33.94027 | -118.38546 | 122 ft | 22 kts | 83° |
| 2026-04-25 04:36 | 33.94041 | -118.38402 | 120 ft | 10 kts | 83° |
| 2026-04-25 04:36 | 33.94037 | -118.38355 | 122 ft | 0 kts | 116° |
| 2026-04-25 04:37 | 33.94035 | -118.38352 | 123 ft | 3 kts | 123° |
| 2026-04-25 04:37 | 33.93995 | -118.38327 | 123 ft | 8 kts | 172° |
| 2026-04-25 04:37 | 33.93955 | -118.38358 | 125 ft | 7 kts | 244° |
| 2026-04-25 04:37 | 33.93941 | -118.38454 | 125 ft | 22 kts | 263° |
| 2026-04-25 04:38 | 33.93892 | -118.38922 | 122 ft | 91 kts | 263° |
| 2026-04-25 04:38 | 33.93788 | -118.39928 | 125 ft | 149 kts | 262° |
| 2026-04-25 04:38 | 33.93647 | -118.41285 | 508 ft | 167 kts | 261° |
| 2026-04-25 04:38 | 33.93465 | -118.42638 | 1327 ft | 163 kts | 260° |
| 2026-04-25 04:39 | 33.93281 | -118.44062 | 1794 ft | 181 kts | 261° |
| 2026-04-25 04:39 | 33.93069 | -118.45642 | 2170 ft | 201 kts | 261° |
| 2026-04-25 04:39 | 33.92913 | -118.47364 | 2551 ft | 213 kts | 266° |
| 2026-04-25 04:39 | 33.92824 | -118.49232 | 2795 ft | 232 kts | 267° |
| 2026-04-25 04:40 | 33.92776 | -118.51213 | 3072 ft | 249 kts | 268° |
| 2026-04-25 04:40 | 33.92634 | -118.53369 | 3473 ft | 265 kts | 264° |
| 2026-04-25 04:40 | 33.92424 | -118.55568 | 4372 ft | 262 kts | 263° |
| 2026-04-25 04:40 | 33.92194 | -118.57758 | 5095 ft | 267 kts | 263° |
| 2026-04-25 04:41 | 33.91997 | -118.59977 | 5920 ft | 267 kts | 264° |
| 2026-04-25 04:41 | 33.91815 | -118.62207 | 6676 ft | 268 kts | 264° |
| 2026-04-25 04:41 | 33.91715 | -118.64456 | 7423 ft | 269 kts | 269° |
| 2026-04-25 04:41 | 33.91712 | -118.66714 | 8185 ft | 270 kts | 270° |
| 2026-04-25 04:42 | 33.91723 | -118.68980 | 8938 ft | 271 kts | 270° |
| 2026-04-25 04:42 | 33.91729 | -118.70491 | 9437 ft | 272 kts | 269° |
| 2026-04-25 04:42 | 33.91732 | -118.72791 | 10094 ft | 277 kts | 269° |
| 2026-04-25 04:42 | 33.91729 | -118.75174 | 10345 ft | 297 kts | 269° |
| 2026-04-25 04:43 | 33.91720 | -118.77743 | 10531 ft | 316 kts | 269° |
| 2026-04-25 04:43 | 33.91709 | -118.80446 | 10975 ft | 326 kts | 269° |
| 2026-04-25 04:43 | 33.91696 | -118.83175 | 11633 ft | 327 kts | 269° |
| 2026-04-25 04:43 | 33.91737 | -118.85914 | 12319 ft | 327 kts | 271° |
| 2026-04-25 04:44 | 33.91830 | -118.88646 | 13138 ft | 326 kts | 271° |
| 2026-04-25 04:44 | 33.91927 | -118.91373 | 13910 ft | 326 kts | 271° |
| 2026-04-25 04:44 | 33.92016 | -118.94082 | 14532 ft | 329 kts | 271° |
| 2026-04-25 04:44 | 33.92100 | -118.96880 | 15160 ft | 332 kts | 271° |
| 2026-04-25 04:45 | 33.92189 | -118.99674 | 15779 ft | 336 kts | 273° |
| 2026-04-25 04:45 | 33.93027 | -119.03278 | 16641 ft | 344 kts | 294° |
| 2026-04-25 04:45 | 33.93820 | -119.04938 | 17081 ft | 346 kts | 298° |
| 2026-04-25 04:45 | 33.95121 | -119.07401 | 17717 ft | 350 kts | 299° |
| 2026-04-25 04:46 | 33.96446 | -119.09874 | 18286 ft | 353 kts | 298° |
| 2026-04-25 04:46 | 33.97772 | -119.12389 | 18821 ft | 355 kts | 298° |
| 2026-04-25 04:46 | 33.99087 | -119.14923 | 19354 ft | 357 kts | 298° |
| 2026-04-25 04:46 | 34.00417 | -119.17474 | 19888 ft | 361 kts | 301° |
| 2026-04-25 04:47 | 34.02137 | -119.19728 | 20394 ft | 373 kts | 317° |
| 2026-04-25 04:47 | 34.04238 | -119.21571 | 21027 ft | 374 kts | 319° |
| 2026-04-25 04:47 | 34.06351 | -119.23351 | 21559 ft | 376 kts | 320° |
| 2026-04-25 04:47 | 34.08506 | -119.25161 | 22021 ft | 380 kts | 319° |
| 2026-04-25 04:48 | 34.10696 | -119.27011 | 22356 ft | 386 kts | 319° |
| 2026-04-25 04:48 | 34.12898 | -119.28885 | 22863 ft | 388 kts | 319° |
| 2026-04-25 04:48 | 34.15098 | -119.30765 | 23394 ft | 389 kts | 319° |
| 2026-04-25 04:48 | 34.17310 | -119.32665 | 23829 ft | 391 kts | 319° |
| 2026-04-25 04:49 | 34.19535 | -119.34582 | 24217 ft | 393 kts | 319° |
| 2026-04-25 04:49 | 34.21767 | -119.36507 | 24661 ft | 394 kts | 319° |
| 2026-04-25 04:49 | 34.23997 | -119.38431 | 25165 ft | 393 kts | 319° |
| 2026-04-25 04:49 | 34.26228 | -119.40359 | 25532 ft | 396 kts | 318° |
| 2026-04-25 04:50 | 34.28481 | -119.42308 | 25866 ft | 399 kts | 318° |
| 2026-04-25 04:50 | 34.30724 | -119.44249 | 26214 ft | 402 kts | 318° |
| 2026-04-25 04:50 | 34.33026 | -119.46242 | 26591 ft | 403 kts | 318° |
| 2026-04-25 04:50 | 34.35315 | -119.48224 | 26947 ft | 405 kts | 318° |
| 2026-04-25 04:51 | 34.37612 | -119.50215 | 27284 ft | 407 kts | 318° |
| 2026-04-25 04:51 | 34.39894 | -119.52195 | 27646 ft | 410 kts | 318° |
| 2026-04-25 04:51 | 34.42334 | -119.54022 | 27995 ft | 419 kts | 328° |
| 2026-04-25 04:51 | 34.45044 | -119.55414 | 28293 ft | 426 kts | 331° |
| 2026-04-25 04:52 | 34.47823 | -119.56714 | 28607 ft | 429 kts | 332° |
| 2026-04-25 04:52 | 34.50617 | -119.57998 | 28931 ft | 431 kts | 332° |
| 2026-04-25 04:52 | 34.53424 | -119.59298 | 29223 ft | 433 kts | 332° |
| 2026-04-25 04:52 | 34.56253 | -119.60633 | 29480 ft | 435 kts | 331° |
| 2026-04-25 04:53 | 34.59071 | -119.61982 | 29854 ft | 436 kts | 331° |
| 2026-04-25 04:53 | 34.61890 | -119.63340 | 30113 ft | 438 kts | 331° |
| 2026-04-25 04:53 | 34.64719 | -119.64716 | 30412 ft | 438 kts | 330° |
| 2026-04-25 04:53 | 34.67549 | -119.66102 | 30763 ft | 436 kts | 330° |
| 2026-04-25 04:54 | 34.70355 | -119.67481 | 31123 ft | 435 kts | 330° |
| 2026-04-25 04:54 | 34.73166 | -119.68856 | 31388 ft | 435 kts | 330° |
| 2026-04-25 04:54 | 34.75980 | -119.70231 | 31625 ft | 437 kts | 330° |
| 2026-04-25 04:54 | 34.78800 | -119.71608 | 32006 ft | 435 kts | 329° |
| 2026-04-25 04:55 | 34.81597 | -119.72974 | 32462 ft | 432 kts | 329° |
| 2026-04-25 04:55 | 34.84347 | -119.74318 | 32844 ft | 430 kts | 329° |
| 2026-04-25 04:55 | 34.87120 | -119.75677 | 33174 ft | 429 kts | 328° |
| 2026-04-25 04:55 | 34.89898 | -119.77040 | 33370 ft | 431 kts | 328° |
| 2026-04-25 04:56 | 34.92683 | -119.78413 | 33631 ft | 431 kts | 328° |
| 2026-04-25 04:56 | 34.95452 | -119.79777 | 33992 ft | 428 kts | 328° |
| 2026-04-25 04:56 | 34.98216 | -119.81136 | 34267 ft | 427 kts | 328° |
| 2026-04-25 04:56 | 35.00974 | -119.82493 | 34545 ft | 427 kts | 327° |
| 2026-04-25 04:57 | 35.03723 | -119.83848 | 34779 ft | 426 kts | 328° |
| 2026-04-25 04:57 | 35.06501 | -119.85159 | 34991 ft | 432 kts | 332° |
| 2026-04-25 04:57 | 35.09479 | -119.86001 | 35211 ft | 444 kts | 341° |
| 2026-04-25 04:57 | 35.12593 | -119.86319 | 35475 ft | 455 kts | 350° |
| 2026-04-25 04:58 | 35.15779 | -119.86101 | 35686 ft | 462 kts | 354° |
| 2026-04-25 04:58 | 35.18996 | -119.85741 | 35838 ft | 465 kts | 355° |
| 2026-04-25 04:58 | 35.22179 | -119.85346 | 35931 ft | 465 kts | 356° |
| 2026-04-25 04:59 | 35.28628 | -119.84548 | 35926 ft | 461 kts | 355° |
| 2026-04-25 04:59 | 35.34969 | -119.83823 | 35924 ft | 459 kts | 355° |
| 2026-04-25 05:00 | 35.41332 | -119.83131 | 35903 ft | 458 kts | 355° |
| 2026-04-25 05:00 | 35.47675 | -119.82447 | 35908 ft | 457 kts | 355° |
| 2026-04-25 05:01 | 35.54025 | -119.81757 | 35898 ft | 457 kts | 355° |
| 2026-04-25 05:01 | 35.60350 | -119.81067 | 35885 ft | 456 kts | 355° |
| 2026-04-25 05:02 | 35.66631 | -119.80381 | 35924 ft | 456 kts | 355° |
| 2026-04-25 05:02 | 35.72963 | -119.79690 | 35890 ft | 456 kts | 355° |
| 2026-04-25 05:03 | 35.79295 | -119.78996 | 35876 ft | 456 kts | 355° |
| 2026-04-25 05:03 | 35.85626 | -119.78301 | 35881 ft | 456 kts | 355° |
| 2026-04-25 05:04 | 35.91915 | -119.77610 | 35882 ft | 456 kts | 355° |
| 2026-04-25 05:04 | 35.98243 | -119.76914 | 35880 ft | 456 kts | 355° |
| 2026-04-25 05:05 | 36.04577 | -119.76215 | 35896 ft | 456 kts | 355° |
| 2026-04-25 05:05 | 36.10898 | -119.75517 | 35934 ft | 456 kts | 355° |
| 2026-04-25 05:06 | 36.17226 | -119.74818 | 35915 ft | 456 kts | 355° |
| 2026-04-25 05:06 | 36.23516 | -119.74120 | 35911 ft | 456 kts | 355° |
| 2026-04-25 05:07 | 36.29835 | -119.73418 | 35916 ft | 455 kts | 355° |
| 2026-04-25 05:07 | 36.36138 | -119.72718 | 35922 ft | 455 kts | 355° |
| 2026-04-25 05:08 | 36.42438 | -119.72016 | 35912 ft | 454 kts | 355° |
| 2026-04-25 05:08 | 36.48722 | -119.71449 | 35884 ft | 442 kts | 345° |
| 2026-04-25 05:08 | 36.51610 | -119.72280 | 35917 ft | 415 kts | 327° |
| 2026-04-25 05:09 | 36.54045 | -119.74031 | 35918 ft | 397 kts | 313° |
| 2026-04-25 05:09 | 36.55949 | -119.76371 | 35893 ft | 386 kts | 300° |
| 2026-04-25 05:09 | 36.57348 | -119.79177 | 35927 ft | 381 kts | 290° |
| 2026-04-25 05:10 | 36.58641 | -119.85486 | 35916 ft | 378 kts | 268° |
| 2026-04-25 05:10 | 36.58297 | -119.92068 | 35920 ft | 383 kts | 264° |
| 2026-04-25 05:11 | 36.57793 | -119.98613 | 35639 ft | 373 kts | 264° |
| 2026-04-25 05:11 | 36.57559 | -120.01770 | 35366 ft | 364 kts | 264° |
| 2026-04-25 05:11 | 36.57337 | -120.04888 | 34999 ft | 359 kts | 265° |
| 2026-04-25 05:12 | 36.56914 | -120.11022 | 34224 ft | 352 kts | 265° |
| 2026-04-25 05:12 | 36.56711 | -120.14010 | 33819 ft | 350 kts | 265° |
| 2026-04-25 05:12 | 36.56507 | -120.17006 | 33395 ft | 346 kts | 265° |
| 2026-04-25 05:12 | 36.56304 | -120.19982 | 32989 ft | 343 kts | 265° |
| 2026-04-25 05:13 | 36.56104 | -120.22920 | 32609 ft | 339 kts | 265° |
| 2026-04-25 05:13 | 36.55904 | -120.25840 | 32230 ft | 336 kts | 266° |
| 2026-04-25 05:13 | 36.55706 | -120.28715 | 31867 ft | 332 kts | 266° |
| 2026-04-25 05:13 | 36.55509 | -120.31568 | 31504 ft | 329 kts | 266° |
| 2026-04-25 05:14 | 36.55313 | -120.34390 | 31148 ft | 326 kts | 266° |
| 2026-04-25 05:14 | 36.55119 | -120.37184 | 30800 ft | 323 kts | 266° |
| 2026-04-25 05:14 | 36.54926 | -120.39953 | 30433 ft | 319 kts | 266° |
| 2026-04-25 05:15 | 36.54541 | -120.45461 | 29728 ft | 323 kts | 266° |
| 2026-04-25 05:15 | 36.54346 | -120.48258 | 29337 ft | 323 kts | 266° |
| 2026-04-25 05:15 | 36.54149 | -120.51038 | 28868 ft | 322 kts | 266° |
| 2026-04-25 05:15 | 36.53952 | -120.53810 | 28412 ft | 320 kts | 266° |
| 2026-04-25 05:16 | 36.53941 | -120.56521 | 28145 ft | 314 kts | 279° |
| 2026-04-25 05:16 | 36.54595 | -120.59059 | 27881 ft | 312 kts | 290° |
| 2026-04-25 05:16 | 36.55643 | -120.61449 | 27421 ft | 319 kts | 301° |
| 2026-04-25 05:16 | 36.57174 | -120.63526 | 27034 ft | 332 kts | 310° |
| 2026-04-25 05:17 | 36.58902 | -120.65470 | 26592 ft | 338 kts | 312° |
| 2026-04-25 05:17 | 36.60689 | -120.67403 | 26169 ft | 339 kts | 313° |
| 2026-04-25 05:17 | 36.62469 | -120.69320 | 25797 ft | 337 kts | 313° |
| 2026-04-25 05:17 | 36.64229 | -120.71229 | 25526 ft | 333 kts | 313° |
| 2026-04-25 05:18 | 36.65960 | -120.73123 | 25167 ft | 331 kts | 312° |
| 2026-04-25 05:18 | 36.67687 | -120.75034 | 24747 ft | 332 kts | 313° |
| 2026-04-25 05:18 | 36.69409 | -120.76951 | 24278 ft | 332 kts | 313° |
| 2026-04-25 05:18 | 36.71123 | -120.78862 | 23912 ft | 330 kts | 313° |
| 2026-04-25 05:19 | 36.72844 | -120.80765 | 23519 ft | 329 kts | 313° |
| 2026-04-25 05:19 | 36.74529 | -120.82635 | 23083 ft | 329 kts | 313° |
| 2026-04-25 05:19 | 36.76238 | -120.84537 | 22660 ft | 328 kts | 313° |
| 2026-04-25 05:19 | 36.77938 | -120.86429 | 22259 ft | 326 kts | 313° |
| 2026-04-25 05:20 | 36.79633 | -120.88307 | 21889 ft | 324 kts | 314° |
| 2026-04-25 05:20 | 36.81315 | -120.90169 | 21499 ft | 323 kts | 314° |
| 2026-04-25 05:20 | 36.82996 | -120.92030 | 21085 ft | 323 kts | 314° |
| 2026-04-25 05:20 | 36.84678 | -120.93895 | 20685 ft | 323 kts | 314° |
| 2026-04-25 05:21 | 36.86354 | -120.95755 | 20310 ft | 322 kts | 315° |
| 2026-04-25 05:21 | 36.88033 | -120.97619 | 19886 ft | 323 kts | 315° |
| 2026-04-25 05:21 | 36.89705 | -120.99475 | 19569 ft | 321 kts | 315° |
| 2026-04-25 05:21 | 36.91372 | -121.01328 | 19245 ft | 319 kts | 315° |
| 2026-04-25 05:22 | 36.93025 | -121.03167 | 18927 ft | 318 kts | 315° |
| 2026-04-25 05:22 | 36.94677 | -121.05006 | 18607 ft | 317 kts | 315° |
| 2026-04-25 05:22 | 36.96317 | -121.06833 | 18294 ft | 316 kts | 315° |
| 2026-04-25 05:22 | 36.97961 | -121.08665 | 17950 ft | 316 kts | 315° |
| 2026-04-25 05:23 | 36.99597 | -121.10489 | 17597 ft | 314 kts | 316° |
| 2026-04-25 05:23 | 37.01223 | -121.12304 | 17294 ft | 313 kts | 316° |
| 2026-04-25 05:23 | 37.02842 | -121.14113 | 16960 ft | 312 kts | 316° |
| 2026-04-25 05:23 | 37.04437 | -121.15894 | 16659 ft | 310 kts | 316° |
| 2026-04-25 05:24 | 37.06042 | -121.17689 | 16338 ft | 309 kts | 317° |
| 2026-04-25 05:24 | 37.07647 | -121.19484 | 16044 ft | 308 kts | 317° |
| 2026-04-25 05:24 | 37.09243 | -121.21267 | 15731 ft | 308 kts | 317° |
| 2026-04-25 05:24 | 37.10841 | -121.23058 | 15420 ft | 307 kts | 317° |
| 2026-04-25 05:25 | 37.12437 | -121.24848 | 15098 ft | 307 kts | 317° |
| 2026-04-25 05:25 | 37.14026 | -121.26646 | 14752 ft | 309 kts | 317° |
| 2026-04-25 05:25 | 37.15611 | -121.28477 | 14379 ft | 311 kts | 317° |
| 2026-04-25 05:25 | 37.17203 | -121.30332 | 14005 ft | 313 kts | 317° |
| 2026-04-25 05:26 | 37.18810 | -121.32203 | 13574 ft | 314 kts | 318° |
| 2026-04-25 05:26 | 37.20395 | -121.34048 | 13126 ft | 308 kts | 317° |
| 2026-04-25 05:26 | 37.21951 | -121.35860 | 12746 ft | 303 kts | 317° |
| 2026-04-25 05:26 | 37.23499 | -121.37664 | 12378 ft | 303 kts | 317° |
| 2026-04-25 05:27 | 37.25045 | -121.39466 | 11996 ft | 303 kts | 317° |
| 2026-04-25 05:27 | 37.26590 | -121.41267 | 11640 ft | 302 kts | 317° |
| 2026-04-25 05:27 | 37.28115 | -121.43045 | 11259 ft | 296 kts | 316° |
| 2026-04-25 05:27 | 37.29603 | -121.44781 | 10919 ft | 295 kts | 316° |
| 2026-04-25 05:28 | 37.31106 | -121.46537 | 10560 ft | 296 kts | 316° |
| 2026-04-25 05:28 | 37.32615 | -121.48300 | 10206 ft | 296 kts | 316° |
| 2026-04-25 05:28 | 37.34133 | -121.50072 | 9884 ft | 296 kts | 316° |
| 2026-04-25 05:28 | 37.35602 | -121.51788 | 9876 ft | 282 kts | 316° |
| 2026-04-25 05:29 | 37.37074 | -121.53511 | 9158 ft | 291 kts | 316° |
| 2026-04-25 05:29 | 37.38051 | -121.54649 | 8917 ft | 286 kts | 316° |
| 2026-04-25 05:29 | 37.39505 | -121.56310 | 8625 ft | 278 kts | 316° |
| 2026-04-25 05:29 | 37.40923 | -121.57925 | 8386 ft | 273 kts | 316° |
| 2026-04-25 05:30 | 37.42775 | -121.60041 | 8067 ft | 269 kts | 316° |
| 2026-04-25 05:30 | 37.44135 | -121.61624 | 7813 ft | 262 kts | 311° |
| 2026-04-25 05:30 | 37.44895 | -121.62813 | 7649 ft | 254 kts | 302° |
| 2026-04-25 05:30 | 37.45871 | -121.64613 | 7466 ft | 244 kts | 302° |
| 2026-04-25 05:31 | 37.46817 | -121.66317 | 7233 ft | 238 kts | 303° |
| 2026-04-25 05:31 | 37.47767 | -121.68002 | 7049 ft | 235 kts | 304° |
| 2026-04-25 05:31 | 37.48712 | -121.69673 | 6885 ft | 233 kts | 304° |
| 2026-04-25 05:31 | 37.49664 | -121.71350 | 6762 ft | 236 kts | 304° |
| 2026-04-25 05:32 | 37.50627 | -121.73048 | 6613 ft | 240 kts | 303° |
| 2026-04-25 05:32 | 37.51604 | -121.74769 | 6431 ft | 241 kts | 304° |
| 2026-04-25 05:32 | 37.52578 | -121.76472 | 6257 ft | 238 kts | 304° |
| 2026-04-25 05:32 | 37.53295 | -121.78287 | 6064 ft | 227 kts | 278° |
| 2026-04-25 05:33 | 37.53494 | -121.80185 | 5975 ft | 212 kts | 276° |
| 2026-04-25 05:33 | 37.53692 | -121.81964 | 5805 ft | 198 kts | 276° |
| 2026-04-25 05:33 | 37.53882 | -121.83615 | 5651 ft | 188 kts | 277° |
| 2026-04-25 05:33 | 37.54068 | -121.85221 | 5556 ft | 184 kts | 277° |
| 2026-04-25 05:34 | 37.54254 | -121.86823 | 5435 ft | 186 kts | 276° |
| 2026-04-25 05:34 | 37.54442 | -121.88443 | 5315 ft | 187 kts | 277° |
| 2026-04-25 05:34 | 37.54632 | -121.90070 | 5179 ft | 188 kts | 276° |
| 2026-04-25 05:34 | 37.54863 | -121.91694 | 5053 ft | 189 kts | 280° |
| 2026-04-25 05:35 | 37.55061 | -121.93324 | 4903 ft | 186 kts | 275° |
| 2026-04-25 05:35 | 37.55228 | -121.94924 | 4776 ft | 183 kts | 276° |
| 2026-04-25 05:35 | 37.55415 | -121.96486 | 4650 ft | 180 kts | 276° |
| 2026-04-25 05:35 | 37.55589 | -121.98049 | 4526 ft | 180 kts | 276° |
| 2026-04-25 05:36 | 37.55756 | -121.99616 | 4383 ft | 181 kts | 274° |
| 2026-04-25 05:36 | 37.56181 | -122.01070 | 4203 ft | 181 kts | 307° |
| 2026-04-25 05:36 | 37.57087 | -122.02144 | 3992 ft | 177 kts | 315° |
| 2026-04-25 05:36 | 37.57970 | -122.03204 | 3808 ft | 169 kts | 310° |
| 2026-04-25 05:37 | 37.58748 | -122.04259 | 3550 ft | 160 kts | 307° |
| 2026-04-25 05:37 | 37.59482 | -122.05325 | 3340 ft | 160 kts | 306° |
| 2026-04-25 05:37 | 37.60199 | -122.06394 | 3118 ft | 159 kts | 306° |
| 2026-04-25 05:37 | 37.60899 | -122.07447 | 2895 ft | 155 kts | 304° |
| 2026-04-25 05:38 | 37.61569 | -122.08479 | 2678 ft | 149 kts | 307° |
| 2026-04-25 05:38 | 37.62216 | -122.09465 | 2485 ft | 145 kts | 306° |
| 2026-04-25 05:38 | 37.62854 | -122.10444 | 2285 ft | 146 kts | 306° |
| 2026-04-25 05:38 | 37.63509 | -122.11428 | 2094 ft | 146 kts | 308° |
| 2026-04-25 05:39 | 37.64173 | -122.12392 | 1906 ft | 145 kts | 307° |
| 2026-04-25 05:39 | 37.64811 | -122.13372 | 1723 ft | 144 kts | 305° |
| 2026-04-25 05:39 | 37.65441 | -122.14359 | 1533 ft | 145 kts | 305° |
| 2026-04-25 05:39 | 37.66079 | -122.15357 | 1331 ft | 147 kts | 308° |
| 2026-04-25 05:40 | 37.66751 | -122.16335 | 1063 ft | 146 kts | 307° |
| 2026-04-25 05:40 | 37.67380 | -122.17328 | 804 ft | 144 kts | 306° |
| 2026-04-25 05:40 | 37.68020 | -122.18293 | 621 ft | 144 kts | 308° |
| 2026-04-25 05:40 | 37.68695 | -122.19227 | 480 ft | 142 kts | 307° |
| 2026-04-25 05:41 | 37.69321 | -122.20181 | 269 ft | 140 kts | 306° |
| 2026-04-25 05:41 | 37.69933 | -122.21114 | 124 ft | 139 kts | 306° |
| 2026-04-25 05:41 | 37.70564 | -122.22040 | 14 ft | 133 kts | 306° |
| 2026-04-25 05:41 | 37.71037 | -122.22763 | 3 ft | 78 kts | 311° |
| 2026-04-25 05:42 | 37.71281 | -122.23063 | 7 ft | 31 kts | 327° |
| 2026-04-25 05:42 | 37.71441 | -122.23145 | 4 ft | 15 kts | 350° |
| 2026-04-25 05:42 | 37.71498 | -122.23091 | 6 ft | 12 kts | 90° |
| 2026-04-25 05:42 | 37.71456 | -122.23009 | 9 ft | 11 kts | 133° |
| 2026-04-25 05:43 | 37.71405 | -122.22936 | 10 ft | 11 kts | 129° |
| 2026-04-25 05:43 | 37.71333 | -122.22826 | 10 ft | 20 kts | 130° |
| 2026-04-25 05:43 | 37.71231 | -122.22673 | 10 ft | 25 kts | 130° |
| 2026-04-25 05:43 | 37.71129 | -122.22519 | 7 ft | 14 kts | 129° |
| 2026-04-25 05:44 | 37.71127 | -122.22413 | 8 ft | 15 kts | 45° |
| 2026-04-25 05:44 | 37.71216 | -122.22321 | 11 ft | 18 kts | 39° |
| 2026-04-25 05:44 | 37.71292 | -122.22214 | 10 ft | 15 kts | 84° |
| 2026-04-25 05:44 | 37.71230 | -122.22093 | 10 ft | 19 kts | 129° |
| 2026-04-25 05:45 | 37.71137 | -122.21958 | 11 ft | 22 kts | 131° |
| 2026-04-25 05:45 | 37.71043 | -122.21833 | 12 ft | 17 kts | 143° |
| 2026-04-25 05:45 | 37.70956 | -122.21711 | 13 ft | 18 kts | 127° |
| 2026-04-25 05:45 | 37.70916 | -122.21598 | 12 ft | 15 kts | 90° |
| 2026-04-25 05:46 | 37.70950 | -122.21524 | 12 ft | 11 kts | 41° |
| 2026-04-25 05:46 | 37.70996 | -122.21503 | 13 ft | 7 kts | 355° |
| 2026-04-25 05:46 | 37.71037 | -122.21540 | 12 ft | 3 kts | 299° |
| 2026-04-25 05:46 | 37.71045 | -122.21558 | 12 ft | 1 kts | 300° |
| 2026-04-25 05:47 | 37.71047 | -122.21562 | 12 ft | 0 kts | 301° |
| 2026-04-25 05:47 | 37.71047 | -122.21563 | 12 ft | 0 kts | 301° |